Aeroporto :
LOGIN :

Iscrizione | Disclaimer

   EN    FR    IT 

 










Sommario :    VFR   VFR Marginale   IFR   IFR Intensivo   IFR Molto Intensivo
Visibilità : 
Base nubi : 
>= 8 km
>= 3000ft
5 / 8 km
1000 / 3000 ft
1500m / 5 km
500 / 1000 ft
800 / 1500m
200 / 500 ft
< 800m
< 200 ft
Simboli :   Temporali  Nebbia  Neve Forte  Precipitazioni Forti  Vento > 20 kt
SIGMETs :   Varie  Temporali  Ghiacco  Turbolenza  Onda orograficha  Ceneri Vulcaniche






- Altitudine del aeroporto : 1300 ft
- Codice IATA : LIG


LFBL - Limoges

ULTIMO METAR :
  • 230100Z AUTO 06010KT CAVOK 10/M04 Q1024 NOSIG

METARs OBSOLETI :
  • 230030Z AUTO 06011KT CAVOK 10/M04 Q1024 NOSIG
  • 230000Z AUTO 06012KT CAVOK 10/M03 Q1025 NOSIG
  • 222330Z AUTO 06010KT CAVOK 10/M03 Q1025 NOSIG
  • 222300Z AUTO 06011KT CAVOK 10/M02 Q1025 NOSIG
  • 222230Z AUTO 05013KT CAVOK 10/M02 Q1025 NOSIG

TAF TAF LFBL
Valido dal 23 a 00 ore il 24 a 00 ore UTC


222300Z 2300/2324 06012KT CAVOK
BECMG 2302/2304 VRB03KT
BECMG 2314/2316 BKN030
PROB40 2316/2321 RA BKN025
ATIS : +33 5 55 48 40 37



MetMap, La meteo Aeronautica in un colpo d'occhio ! - Copyright ORBIFLY Dicembre 2007 - Disclaimer

ORBIFLY MET'MAP TEAM :

Programmazione e sviluppo : Alexandra Zaïnal
Concezione : Baudouin d'Aumeries
Aiuto per la programmazione : Marc-Olivier Méhu
Supporto tecnico e logistico : Manuel Goepfert
Aiuto per la traduzione : Arnaldo La Scala

Contatto : metmap@orbifly.com




FONTI E CREDITI :

   NOAA